sensor_id;sensor_type;location;lat;lon;timestamp;P1;durP1;ratioP1;P2;durP2;ratioP2
78622;SDS011;67943;54.412;9.502;2023-03-01T00:01:37;9.63;;;5.20;;
78622;SDS011;67943;54.412;9.502;2023-03-01T00:06:39;9.15;;;5.40;;
78622;SDS011;67943;54.412;9.502;2023-03-01T00:11:42;10.43;;;5.78;;
78622;SDS011;67943;54.412;9.502;2023-03-01T00:16:44;10.18;;;5.50;;
78622;SDS011;67943;54.412;9.502;2023-03-01T00:21:46;15.10;;;7.22;;
78622;SDS011;67943;54.412;9.502;2023-03-01T00:26:49;13.95;;;7.35;;
78622;SDS011;67943;54.412;9.502;2023-03-01T00:31:55;9.63;;;5.03;;
78622;SDS011;67943;54.412;9.502;2023-03-01T00:36:56;8.55;;;5.28;;
78622;SDS011;67943;54.412;9.502;2023-03-01T00:42:06;10.30;;;6.18;;
78622;SDS011;67943;54.412;9.502;2023-03-01T00:47:07;8.23;;;4.72;;
78622;SDS011;67943;54.412;9.502;2023-03-01T00:52:09;9.63;;;5.22;;
78622;SDS011;67943;54.412;9.502;2023-03-01T00:57:11;8.60;;;5.20;;
78622;SDS011;67943;54.412;9.502;2023-03-01T01:02:13;9.10;;;4.78;;
78622;SDS011;67943;54.412;9.502;2023-03-01T01:07:15;8.40;;;4.80;;
78622;SDS011;67943;54.412;9.502;2023-03-01T01:12:18;10.55;;;6.13;;
78622;SDS011;67943;54.412;9.502;2023-03-01T01:17:19;6.15;;;3.80;;
78622;SDS011;67943;54.412;9.502;2023-03-01T01:22:21;8.43;;;5.00;;
78622;SDS011;67943;54.412;9.502;2023-03-01T01:27:24;8.10;;;4.80;;
78622;SDS011;67943;54.412;9.502;2023-03-01T01:32:25;29.30;;;8.40;;
78622;SDS011;67943;54.412;9.502;2023-03-01T01:37:27;11.75;;;5.88;;
78622;SDS011;67943;54.412;9.502;2023-03-01T01:42:32;9.82;;;4.88;;
78622;SDS011;67943;54.412;9.502;2023-03-01T01:47:34;8.27;;;4.20;;
78622;SDS011;67943;54.412;9.502;2023-03-01T01:52:36;10.30;;;4.93;;
78622;SDS011;67943;54.412;9.502;2023-03-01T01:57:41;8.32;;;4.75;;
78622;SDS011;67943;54.412;9.502;2023-03-01T02:02:46;8.25;;;4.47;;
78622;SDS011;67943;54.412;9.502;2023-03-01T02:07:51;11.15;;;5.03;;
78622;SDS011;67943;54.412;9.502;2023-03-01T02:12:54;11.60;;;5.15;;
78622;SDS011;67943;54.412;9.502;2023-03-01T02:17:57;9.88;;;5.68;;
78622;SDS011;67943;54.412;9.502;2023-03-01T02:22:58;8.77;;;4.65;;
78622;SDS011;67943;54.412;9.502;2023-03-01T02:28:04;9.43;;;4.95;;
78622;SDS011;67943;54.412;9.502;2023-03-01T02:38:16;8.10;;;4.63;;
78622;SDS011;67943;54.412;9.502;2023-03-01T02:43:18;46.40;;;7.60;;
78622;SDS011;67943;54.412;9.502;2023-03-01T02:48:25;9.38;;;4.82;;
78622;SDS011;67943;54.412;9.502;2023-03-01T02:53:27;24.52;;;6.03;;
78622;SDS011;67943;54.412;9.502;2023-03-01T02:58:39;11.55;;;4.85;;
78622;SDS011;67943;54.412;9.502;2023-03-01T03:03:46;9.27;;;4.35;;
78622;SDS011;67943;54.412;9.502;2023-03-01T03:08:48;6.65;;;3.90;;
78622;SDS011;67943;54.412;9.502;2023-03-01T03:13:50;19.27;;;7.35;;
78622;SDS011;67943;54.412;9.502;2023-03-01T03:18:53;22.52;;;8.20;;
78622;SDS011;67943;54.412;9.502;2023-03-01T03:23:54;19.08;;;8.48;;
78622;SDS011;67943;54.412;9.502;2023-03-01T03:28:56;30.02;;;8.10;;
78622;SDS011;67943;54.412;9.502;2023-03-01T03:33:59;9.10;;;5.22;;
78622;SDS011;67943;54.412;9.502;2023-03-01T03:39:01;9.30;;;5.32;;
78622;SDS011;67943;54.412;9.502;2023-03-01T03:44:02;8.15;;;4.65;;
78622;SDS011;67943;54.412;9.502;2023-03-01T03:49:05;7.55;;;3.83;;
78622;SDS011;67943;54.412;9.502;2023-03-01T03:54:07;7.88;;;4.60;;
78622;SDS011;67943;54.412;9.502;2023-03-01T03:59:08;49.60;;;6.25;;
78622;SDS011;67943;54.412;9.502;2023-03-01T04:04:12;7.00;;;3.92;;
78622;SDS011;67943;54.412;9.502;2023-03-01T04:09:17;7.22;;;4.30;;
78622;SDS011;67943;54.412;9.502;2023-03-01T04:14:19;6.35;;;3.65;;
78622;SDS011;67943;54.412;9.502;2023-03-01T04:19:22;6.22;;;3.67;;
78622;SDS011;67943;54.412;9.502;2023-03-01T04:24:23;9.18;;;3.65;;
78622;SDS011;67943;54.412;9.502;2023-03-01T04:29:24;9.02;;;4.68;;
78622;SDS011;67943;54.412;9.502;2023-03-01T04:34:27;14.68;;;7.03;;
78622;SDS011;67943;54.412;9.502;2023-03-01T04:39:29;8.02;;;4.43;;
78622;SDS011;67943;54.412;9.502;2023-03-01T04:44:30;6.00;;;3.53;;
78622;SDS011;67943;54.412;9.502;2023-03-01T04:49:33;8.73;;;4.72;;
78622;SDS011;67943;54.412;9.502;2023-03-01T04:54:35;11.02;;;5.75;;
78622;SDS011;67943;54.412;9.502;2023-03-01T04:59:37;13.88;;;5.85;;
78622;SDS011;67943;54.412;9.502;2023-03-01T05:04:40;14.95;;;5.82;;
78622;SDS011;67943;54.412;9.502;2023-03-01T05:09:41;8.57;;;4.45;;
78622;SDS011;67943;54.412;9.502;2023-03-01T05:14:43;8.75;;;4.57;;
78622;SDS011;67943;54.412;9.502;2023-03-01T05:19:46;7.60;;;4.00;;
78622;SDS011;67943;54.412;9.502;2023-03-01T05:24:47;10.35;;;4.55;;
78622;SDS011;67943;54.412;9.502;2023-03-01T05:29:49;11.02;;;5.63;;
78622;SDS011;67943;54.412;9.502;2023-03-01T05:34:52;13.63;;;5.60;;
78622;SDS011;67943;54.412;9.502;2023-03-01T05:39:55;9.93;;;4.80;;
78622;SDS011;67943;54.412;9.502;2023-03-01T05:44:56;8.10;;;5.10;;
78622;SDS011;67943;54.412;9.502;2023-03-01T05:49:59;14.73;;;5.30;;
78622;SDS011;67943;54.412;9.502;2023-03-01T05:55:00;6.78;;;3.53;;
78622;SDS011;67943;54.412;9.502;2023-03-01T06:00:02;7.90;;;4.47;;
78622;SDS011;67943;54.412;9.502;2023-03-01T06:05:08;11.90;;;3.67;;
78622;SDS011;67943;54.412;9.502;2023-03-01T06:10:11;7.82;;;4.15;;
78622;SDS011;67943;54.412;9.502;2023-03-01T06:15:14;6.90;;;3.38;;
78622;SDS011;67943;54.412;9.502;2023-03-01T06:20:18;7.97;;;4.07;;
78622;SDS011;67943;54.412;9.502;2023-03-01T06:25:22;5.50;;;2.78;;
78622;SDS011;67943;54.412;9.502;2023-03-01T06:30:26;8.93;;;3.80;;
78622;SDS011;67943;54.412;9.502;2023-03-01T06:35:29;6.82;;;3.15;;
78622;SDS011;67943;54.412;9.502;2023-03-01T06:40:31;5.82;;;3.28;;
78622;SDS011;67943;54.412;9.502;2023-03-01T06:45:35;8.93;;;4.32;;
78622;SDS011;67943;54.412;9.502;2023-03-01T06:50:39;4.20;;;2.38;;
78622;SDS011;67943;54.412;9.502;2023-03-01T06:55:41;14.85;;;3.75;;
78622;SDS011;67943;54.412;9.502;2023-03-01T07:00:42;5.53;;;2.97;;
78622;SDS011;67943;54.412;9.502;2023-03-01T07:05:45;9.00;;;3.60;;
78622;SDS011;67943;54.412;9.502;2023-03-01T07:10:54;5.03;;;1.85;;
78622;SDS011;67943;54.412;9.502;2023-03-01T07:15:56;5.13;;;2.85;;
78622;SDS011;67943;54.412;9.502;2023-03-01T07:20:59;6.43;;;2.60;;
78622;SDS011;67943;54.412;9.502;2023-03-01T07:26:05;5.57;;;2.33;;
78622;SDS011;67943;54.412;9.502;2023-03-01T07:31:06;32.05;;;4.78;;
78622;SDS011;67943;54.412;9.502;2023-03-01T07:36:09;9.55;;;3.20;;
78622;SDS011;67943;54.412;9.502;2023-03-01T07:41:11;3.15;;;2.00;;
78622;SDS011;67943;54.412;9.502;2023-03-01T07:46:12;5.55;;;3.13;;
78622;SDS011;67943;54.412;9.502;2023-03-01T07:51:15;3.72;;;2.03;;
78622;SDS011;67943;54.412;9.502;2023-03-01T07:56:17;7.22;;;2.92;;
78622;SDS011;67943;54.412;9.502;2023-03-01T08:01:20;24.98;;;4.28;;
78622;SDS011;67943;54.412;9.502;2023-03-01T08:06:23;6.13;;;3.35;;
78622;SDS011;67943;54.412;9.502;2023-03-01T08:11:25;21.63;;;4.00;;
78622;SDS011;67943;54.412;9.502;2023-03-01T08:16:28;9.88;;;5.57;;
78622;SDS011;67943;54.412;9.502;2023-03-01T08:21:30;9.27;;;4.70;;
78622;SDS011;67943;54.412;9.502;2023-03-01T08:26:34;9.98;;;4.20;;
78622;SDS011;67943;54.412;9.502;2023-03-01T08:31:36;29.27;;;6.57;;
78622;SDS011;67943;54.412;9.502;2023-03-01T08:36:41;2.80;;;1.55;;
78622;SDS011;67943;54.412;9.502;2023-03-01T08:41:44;11.65;;;3.30;;
78622;SDS011;67943;54.412;9.502;2023-03-01T08:46:46;29.83;;;3.75;;
78622;SDS011;67943;54.412;9.502;2023-03-01T08:51:51;21.95;;;3.20;;
78622;SDS011;67943;54.412;9.502;2023-03-01T08:56:53;27.40;;;4.82;;
78622;SDS011;67943;54.412;9.502;2023-03-01T09:01:54;14.35;;;3.45;;
78622;SDS011;67943;54.412;9.502;2023-03-01T09:06:57;3.50;;;1.92;;
78622;SDS011;67943;54.412;9.502;2023-03-01T09:11:59;5.90;;;2.47;;
78622;SDS011;67943;54.412;9.502;2023-03-01T09:17:00;10.85;;;2.25;;
78622;SDS011;67943;54.412;9.502;2023-03-01T09:22:04;5.45;;;2.05;;
78622;SDS011;67943;54.412;9.502;2023-03-01T09:27:05;2.45;;;1.50;;
78622;SDS011;67943;54.412;9.502;2023-03-01T09:32:08;6.53;;;2.47;;
78622;SDS011;67943;54.412;9.502;2023-03-01T09:37:11;2.42;;;1.70;;
78622;SDS011;67943;54.412;9.502;2023-03-01T09:42:15;4.18;;;1.95;;
78622;SDS011;67943;54.412;9.502;2023-03-01T09:47:17;2.70;;;1.70;;
78622;SDS011;67943;54.412;9.502;2023-03-01T09:52:23;2.95;;;1.70;;
78622;SDS011;67943;54.412;9.502;2023-03-01T09:57:33;4.30;;;2.22;;
78622;SDS011;67943;54.412;9.502;2023-03-01T10:02:42;3.03;;;1.83;;
78622;SDS011;67943;54.412;9.502;2023-03-01T10:07:48;4.05;;;2.70;;
78622;SDS011;67943;54.412;9.502;2023-03-01T10:12:59;2.60;;;1.67;;
78622;SDS011;67943;54.412;9.502;2023-03-01T10:18:06;1.98;;;1.52;;
78622;SDS011;67943;54.412;9.502;2023-03-01T10:23:14;3.80;;;2.60;;
78622;SDS011;67943;54.412;9.502;2023-03-01T10:28:16;2.55;;;1.75;;
78622;SDS011;67943;54.412;9.502;2023-03-01T10:33:22;3.42;;;2.35;;
78622;SDS011;67943;54.412;9.502;2023-03-01T10:38:26;4.47;;;2.78;;
78622;SDS011;67943;54.412;9.502;2023-03-01T10:43:32;4.40;;;2.95;;
78622;SDS011;67943;54.412;9.502;2023-03-01T10:48:45;4.05;;;2.90;;
78622;SDS011;67943;54.412;9.502;2023-03-01T10:53:49;3.33;;;2.30;;
78622;SDS011;67943;54.412;9.502;2023-03-01T10:58:58;7.47;;;5.28;;
78622;SDS011;67943;54.412;9.502;2023-03-01T11:04:09;4.25;;;2.92;;
78622;SDS011;67943;54.412;9.502;2023-03-01T11:09:15;5.65;;;4.00;;
78622;SDS011;67943;54.412;9.502;2023-03-01T11:14:20;4.15;;;2.63;;
78622;SDS011;67943;54.412;9.502;2023-03-01T11:19:23;4.07;;;2.75;;
78622;SDS011;67943;54.412;9.502;2023-03-01T11:24:28;3.22;;;2.03;;
78622;SDS011;67943;54.412;9.502;2023-03-01T11:29:36;4.65;;;2.75;;
78622;SDS011;67943;54.412;9.502;2023-03-01T11:34:42;4.03;;;2.42;;
78622;SDS011;67943;54.412;9.502;2023-03-01T11:39:52;3.80;;;2.80;;
78622;SDS011;67943;54.412;9.502;2023-03-01T11:44:59;3.78;;;2.72;;
78622;SDS011;67943;54.412;9.502;2023-03-01T11:50:09;4.13;;;2.80;;
78622;SDS011;67943;54.412;9.502;2023-03-01T11:55:30;4.30;;;2.70;;
78622;SDS011;67943;54.412;9.502;2023-03-01T12:00:45;4.75;;;3.38;;
78622;SDS011;67943;54.412;9.502;2023-03-01T12:06:04;4.63;;;3.30;;
78622;SDS011;67943;54.412;9.502;2023-03-01T12:11:20;3.85;;;2.67;;
78622;SDS011;67943;54.412;9.502;2023-03-01T12:16:29;4.38;;;3.25;;
78622;SDS011;67943;54.412;9.502;2023-03-01T12:21:45;4.32;;;3.05;;
78622;SDS011;67943;54.412;9.502;2023-03-01T12:27:05;3.75;;;2.63;;
78622;SDS011;67943;54.412;9.502;2023-03-01T12:32:20;3.35;;;2.42;;
78622;SDS011;67943;54.412;9.502;2023-03-01T12:37:36;3.40;;;2.22;;
78622;SDS011;67943;54.412;9.502;2023-03-01T12:42:56;4.05;;;2.72;;
78622;SDS011;67943;54.412;9.502;2023-03-01T12:48:11;3.45;;;2.50;;
78622;SDS011;67943;54.412;9.502;2023-03-01T12:53:24;5.15;;;3.20;;
78622;SDS011;67943;54.412;9.502;2023-03-01T12:58:29;4.57;;;3.08;;
78622;SDS011;67943;54.412;9.502;2023-03-01T13:03:36;4.43;;;3.00;;
78622;SDS011;67943;54.412;9.502;2023-03-01T13:08:51;3.15;;;2.15;;
78622;SDS011;67943;54.412;9.502;2023-03-01T13:19:38;4.35;;;3.40;;
78622;SDS011;67943;54.412;9.502;2023-03-01T13:24:41;4.43;;;2.95;;
78622;SDS011;67943;54.412;9.502;2023-03-01T13:29:46;4.30;;;3.17;;
78622;SDS011;67943;54.412;9.502;2023-03-01T13:34:49;6.13;;;4.10;;
78622;SDS011;67943;54.412;9.502;2023-03-01T13:39:52;4.53;;;3.33;;
78622;SDS011;67943;54.412;9.502;2023-03-01T13:44:55;6.43;;;4.22;;
78622;SDS011;67943;54.412;9.502;2023-03-01T13:49:58;5.20;;;3.78;;
78622;SDS011;67943;54.412;9.502;2023-03-01T13:55:02;4.43;;;3.35;;
78622;SDS011;67943;54.412;9.502;2023-03-01T14:00:07;6.35;;;4.25;;
78622;SDS011;67943;54.412;9.502;2023-03-01T14:05:24;6.78;;;4.18;;
78622;SDS011;67943;54.412;9.502;2023-03-01T14:10:25;4.60;;;2.97;;
78622;SDS011;67943;54.412;9.502;2023-03-01T14:15:35;15.13;;;7.47;;
78622;SDS011;67943;54.412;9.502;2023-03-01T14:20:43;19.77;;;10.43;;
78622;SDS011;67943;54.412;9.502;2023-03-01T14:25:51;10.23;;;7.10;;
78622;SDS011;67943;54.412;9.502;2023-03-01T14:30:57;8.52;;;5.93;;
78622;SDS011;67943;54.412;9.502;2023-03-01T14:36:00;7.97;;;5.00;;
78622;SDS011;67943;54.412;9.502;2023-03-01T14:41:03;9.65;;;6.22;;
78622;SDS011;67943;54.412;9.502;2023-03-01T14:46:17;10.98;;;6.15;;
78622;SDS011;67943;54.412;9.502;2023-03-01T14:51:21;10.30;;;5.93;;
78622;SDS011;67943;54.412;9.502;2023-03-01T14:56:23;11.55;;;7.65;;
78622;SDS011;67943;54.412;9.502;2023-03-01T15:01:26;10.07;;;6.32;;
78622;SDS011;67943;54.412;9.502;2023-03-01T15:06:29;14.00;;;7.90;;
78622;SDS011;67943;54.412;9.502;2023-03-01T15:11:31;11.93;;;7.30;;
78622;SDS011;67943;54.412;9.502;2023-03-01T15:16:34;12.38;;;7.18;;
78622;SDS011;67943;54.412;9.502;2023-03-01T15:21:42;13.07;;;7.85;;
78622;SDS011;67943;54.412;9.502;2023-03-01T15:26:50;13.68;;;8.15;;
78622;SDS011;67943;54.412;9.502;2023-03-01T15:31:57;13.77;;;7.75;;
78622;SDS011;67943;54.412;9.502;2023-03-01T15:37:00;16.08;;;9.15;;
78622;SDS011;67943;54.412;9.502;2023-03-01T15:42:03;18.17;;;9.45;;
78622;SDS011;67943;54.412;9.502;2023-03-01T15:47:08;19.02;;;10.88;;
78622;SDS011;67943;54.412;9.502;2023-03-01T15:52:24;22.52;;;11.98;;
78622;SDS011;67943;54.412;9.502;2023-03-01T15:57:29;26.95;;;14.30;;
78622;SDS011;67943;54.412;9.502;2023-03-01T16:02:32;28.50;;;14.45;;
78622;SDS011;67943;54.412;9.502;2023-03-01T16:07:34;35.85;;;15.65;;
78622;SDS011;67943;54.412;9.502;2023-03-01T16:12:39;32.05;;;16.52;;
78622;SDS011;67943;54.412;9.502;2023-03-01T16:17:42;29.38;;;13.75;;
78622;SDS011;67943;54.412;9.502;2023-03-01T16:22:44;28.67;;;12.95;;
78622;SDS011;67943;54.412;9.502;2023-03-01T16:27:47;25.67;;;13.95;;
78622;SDS011;67943;54.412;9.502;2023-03-01T16:32:51;24.23;;;13.25;;
78622;SDS011;67943;54.412;9.502;2023-03-01T16:37:52;21.60;;;11.02;;
78622;SDS011;67943;54.412;9.502;2023-03-01T16:42:54;21.15;;;11.90;;
78622;SDS011;67943;54.412;9.502;2023-03-01T16:48:00;19.27;;;10.93;;
78622;SDS011;67943;54.412;9.502;2023-03-01T16:53:02;17.95;;;8.88;;
78622;SDS011;67943;54.412;9.502;2023-03-01T16:58:03;23.17;;;12.50;;
78622;SDS011;67943;54.412;9.502;2023-03-01T17:03:07;18.13;;;10.18;;
78622;SDS011;67943;54.412;9.502;2023-03-01T17:08:08;15.82;;;9.70;;
78622;SDS011;67943;54.412;9.502;2023-03-01T17:13:10;14.10;;;7.82;;
78622;SDS011;67943;54.412;9.502;2023-03-01T17:18:13;19.17;;;9.95;;
78622;SDS011;67943;54.412;9.502;2023-03-01T17:23:14;18.75;;;10.48;;
78622;SDS011;67943;54.412;9.502;2023-03-01T17:28:16;25.15;;;11.43;;
78622;SDS011;67943;54.412;9.502;2023-03-01T17:38:20;18.75;;;10.77;;
78622;SDS011;67943;54.412;9.502;2023-03-01T17:43:22;20.25;;;11.13;;
78622;SDS011;67943;54.412;9.502;2023-03-01T17:48:25;27.02;;;14.30;;
78622;SDS011;67943;54.412;9.502;2023-03-01T17:53:27;20.00;;;10.68;;
78622;SDS011;67943;54.412;9.502;2023-03-01T17:58:29;20.95;;;11.50;;
78622;SDS011;67943;54.412;9.502;2023-03-01T18:03:32;20.88;;;9.93;;
78622;SDS011;67943;54.412;9.502;2023-03-01T18:08:34;23.33;;;12.63;;
78622;SDS011;67943;54.412;9.502;2023-03-01T18:13:36;27.75;;;11.65;;
78622;SDS011;67943;54.412;9.502;2023-03-01T18:18:40;26.80;;;13.32;;
78622;SDS011;67943;54.412;9.502;2023-03-01T18:23:44;23.88;;;12.43;;
78622;SDS011;67943;54.412;9.502;2023-03-01T18:28:46;23.23;;;11.50;;
78622;SDS011;67943;54.412;9.502;2023-03-01T18:33:52;28.08;;;14.00;;
78622;SDS011;67943;54.412;9.502;2023-03-01T18:38:55;23.77;;;12.02;;
78622;SDS011;67943;54.412;9.502;2023-03-01T18:43:57;26.55;;;12.02;;
78622;SDS011;67943;54.412;9.502;2023-03-01T18:49:00;24.75;;;12.20;;
78622;SDS011;67943;54.412;9.502;2023-03-01T18:54:02;24.63;;;12.02;;
78622;SDS011;67943;54.412;9.502;2023-03-01T18:59:04;24.63;;;13.10;;
78622;SDS011;67943;54.412;9.502;2023-03-01T19:04:07;25.85;;;11.25;;
78622;SDS011;67943;54.412;9.502;2023-03-01T19:09:10;28.98;;;13.15;;
78622;SDS011;67943;54.412;9.502;2023-03-01T19:14:11;19.88;;;10.23;;
78622;SDS011;67943;54.412;9.502;2023-03-01T19:19:14;25.58;;;11.82;;
78622;SDS011;67943;54.412;9.502;2023-03-01T19:24:16;28.88;;;13.52;;
78622;SDS011;67943;54.412;9.502;2023-03-01T19:29:18;31.17;;;14.00;;
78622;SDS011;67943;54.412;9.502;2023-03-01T19:39:24;27.63;;;12.65;;
78622;SDS011;67943;54.412;9.502;2023-03-01T19:44:26;36.22;;;15.63;;
78622;SDS011;67943;54.412;9.502;2023-03-01T19:49:29;29.17;;;13.65;;
78622;SDS011;67943;54.412;9.502;2023-03-01T19:54:31;25.40;;;12.38;;
78622;SDS011;67943;54.412;9.502;2023-03-01T19:59:33;25.58;;;11.45;;
78622;SDS011;67943;54.412;9.502;2023-03-01T20:04:36;28.15;;;12.25;;
78622;SDS011;67943;54.412;9.502;2023-03-01T20:09:37;23.20;;;10.85;;
78622;SDS011;67943;54.412;9.502;2023-03-01T20:14:40;23.75;;;11.20;;
78622;SDS011;67943;54.412;9.502;2023-03-01T20:19:43;25.08;;;11.80;;
78622;SDS011;67943;54.412;9.502;2023-03-01T20:24:45;18.45;;;9.00;;
78622;SDS011;67943;54.412;9.502;2023-03-01T20:29:46;16.02;;;7.97;;
78622;SDS011;67943;54.412;9.502;2023-03-01T20:34:49;25.00;;;11.85;;
78622;SDS011;67943;54.412;9.502;2023-03-01T20:39:51;25.10;;;12.30;;
78622;SDS011;67943;54.412;9.502;2023-03-01T20:44:52;21.00;;;10.75;;
78622;SDS011;67943;54.412;9.502;2023-03-01T20:49:55;20.33;;;10.80;;
78622;SDS011;67943;54.412;9.502;2023-03-01T20:54:59;17.55;;;9.75;;
78622;SDS011;67943;54.412;9.502;2023-03-01T21:00:00;21.58;;;11.13;;
78622;SDS011;67943;54.412;9.502;2023-03-01T21:05:04;24.55;;;12.07;;
78622;SDS011;67943;54.412;9.502;2023-03-01T21:10:07;47.08;;;17.30;;
78622;SDS011;67943;54.412;9.502;2023-03-01T21:15:10;25.20;;;12.10;;
78622;SDS011;67943;54.412;9.502;2023-03-01T21:20:13;33.25;;;15.23;;
78622;SDS011;67943;54.412;9.502;2023-03-01T21:25:14;27.40;;;12.27;;
78622;SDS011;67943;54.412;9.502;2023-03-01T21:30:16;31.70;;;13.13;;
78622;SDS011;67943;54.412;9.502;2023-03-01T21:35:19;22.35;;;10.43;;
78622;SDS011;67943;54.412;9.502;2023-03-01T21:40:20;35.88;;;15.02;;
78622;SDS011;67943;54.412;9.502;2023-03-01T21:45:22;27.17;;;13.18;;
78622;SDS011;67943;54.412;9.502;2023-03-01T21:50:25;26.23;;;12.23;;
78622;SDS011;67943;54.412;9.502;2023-03-01T21:55:26;24.17;;;10.82;;
78622;SDS011;67943;54.412;9.502;2023-03-01T22:00:27;29.92;;;12.50;;
78622;SDS011;67943;54.412;9.502;2023-03-01T22:10:32;32.50;;;14.50;;
78622;SDS011;67943;54.412;9.502;2023-03-01T22:15:33;25.35;;;11.73;;
78622;SDS011;67943;54.412;9.502;2023-03-01T22:20:36;17.35;;;8.63;;
78622;SDS011;67943;54.412;9.502;2023-03-01T22:25:39;22.52;;;11.15;;
78622;SDS011;67943;54.412;9.502;2023-03-01T22:30:42;30.23;;;13.00;;
78622;SDS011;67943;54.412;9.502;2023-03-01T22:35:45;21.48;;;9.45;;
78622;SDS011;67943;54.412;9.502;2023-03-01T22:40:54;29.60;;;12.25;;
78622;SDS011;67943;54.412;9.502;2023-03-01T22:45:56;19.52;;;8.85;;
78622;SDS011;67943;54.412;9.502;2023-03-01T22:50:59;16.75;;;8.10;;
78622;SDS011;67943;54.412;9.502;2023-03-01T22:56:08;16.48;;;8.13;;
78622;SDS011;67943;54.412;9.502;2023-03-01T23:01:11;16.98;;;8.40;;
78622;SDS011;67943;54.412;9.502;2023-03-01T23:06:16;18.95;;;8.95;;
78622;SDS011;67943;54.412;9.502;2023-03-01T23:11:19;23.13;;;11.57;;
78622;SDS011;67943;54.412;9.502;2023-03-01T23:16:22;12.88;;;7.25;;
78622;SDS011;67943;54.412;9.502;2023-03-01T23:21:26;44.40;;;13.43;;
78622;SDS011;67943;54.412;9.502;2023-03-01T23:26:28;19.92;;;9.30;;
78622;SDS011;67943;54.412;9.502;2023-03-01T23:31:30;21.63;;;10.25;;
78622;SDS011;67943;54.412;9.502;2023-03-01T23:36:33;21.00;;;9.30;;
78622;SDS011;67943;54.412;9.502;2023-03-01T23:41:34;21.40;;;9.90;;
78622;SDS011;67943;54.412;9.502;2023-03-01T23:46:36;17.77;;;8.27;;
78622;SDS011;67943;54.412;9.502;2023-03-01T23:51:39;20.10;;;9.50;;
78622;SDS011;67943;54.412;9.502;2023-03-01T23:56:43;19.58;;;9.82;;
